Etusivu
METAR-TAF:

METAR-TAF

Lentoasemat :

Tozeur, Tunisia

Leveyspiiri: 33-55N, Pituuspiiri: 008-06E, korkeus merenpinnasta: 87 m

Tämänhetkinen sää

Tämä raportti tehtiin 41 minuuttia sitten, kello 18.00 UTC
Tuuli 19 kn idästä
Lämpötila 36°C
Kosteus 27%
Ilmanpaine 1013 hPa
Näkyvyys: 6000 m
Hajanaisia pilviä 3300 ft:n korkeudessa

METAR: DTTZ 181800Z 09019KT 6000 SCT033 36/14 Q1013

Aika: 19:41 (18:41 UTC)

Sääennuste

Tämä raportti tehtiin 1 tunti ja 41 minuuttia sitten, kello 17.00 UTC
Ennuste voimassa 18. päivästä klo 18 UTC - 19. päivään klo 18 UTC
Tuuli 17 kn idästä
Näkyvyys: 6000 m
Hajanaisia pilviä 3300 ft:n korkeudessa
Ajoittain
18. päivästä klo 20 UTC - 19. päivään klo 06 UTC
Tuuli 15 kn idästä/kaakosta puuskistuen 28 kn:hen
Tulossa
19. päivästä klo 10 UTC - 18. päivään klo 12 UTC
Tuuli 10 kn idästä

TAF: DTTZ 181700Z 1818/1918 09017KT 6000 SCT033 TEMPO 1820/1906 12015G28KT BECMG 1910/1812 10010KT

Säähavainnot ja -ennusteet yli 4000 lentoasemalta (METAR- ja TAF-raportit).

Käytössä olevat sääasemat on merkitty karttaan keltaisilla ja punaisilla pisteillä.

Aseta hiiri pisteen päälle nähdäksesi sääaseman nimen.

Klikkaa sitten nähdäksesi säähavainnot ja -ennusteet.

Kartan vaihtaminen: klikkaa mustalla rastilla varustettuja vihreitä pisteitä, niin voit zoomata sisään; viivalla varustettua vihreää pistettä, niin voit zoomata ulos tai vihreitä nuolia, niin pääset viereisille kartoille.


METAR-TAF: